Time;durP1;ratioP1;P1;durP2;ratioP2;P2;SDS_P1;SDS_P2;PMS_P1;PMS_P2;Temp;Humidity;BMP_temperature;BMP_pressure;BME280_temperature;BME280_humidity;BME280_pressure;Samples;Min_cycle;Max_cycle;Signal;HPM_P1;HPM_P2
2023/03/07 00:00:37;;;;;;;;;;;;;;;-3.33;73.58;99564.20;105229;1288;60313;-75
2023/03/07 00:03:23;;;;;;;;;;;;;;;-3.33;73.55;99562.02;105160;1288;60391;-75
2023/03/07 00:06:10;;;;;;;;;;;;;;;-3.33;73.56;99564.88;105137;1292;72498;-75
2023/03/07 00:08:58;;;;;;;;;;;;;;;-3.35;73.47;99562.99;105181;1289;68189;-75
2023/03/07 00:11:44;;;;;;;;;;;;;;;-3.37;73.40;99560.77;105164;1290;71210;-75
2023/03/07 00:14:30;;;;;;;;;;;;;;;-3.37;73.53;99563.27;105171;1289;60504;-74
2023/03/07 00:17:16;;;;;;;;;;;;;;;-3.36;73.59;99563.64;105202;1289;60035;-74
2023/03/07 00:20:05;;;;;;;;;;;;;;;-3.34;73.58;99562.15;105135;1288;74116;-74
2023/03/07 00:22:52;;;;;;;;;;;;;;;-3.33;73.57;99563.20;105051;1289;68032;-74
2023/03/07 00:25:38;;;;;;;;;;;;;;;-3.32;73.62;99561.86;105067;1289;71207;-75
2023/03/07 00:28:24;;;;;;;;;;;;;;;-3.29;73.65;99562.42;105194;1289;60488;-75
2023/03/07 00:31:10;;;;;;;;;;;;;;;-3.26;73.71;99555.44;105172;1292;60533;-75
2023/03/07 00:33:56;;;;;;;;;;;;;;;-3.22;73.71;99552.64;105090;1292;72498;-75
2023/03/07 00:36:42;;;;;;;;;;;;;;;-3.19;73.82;99546.64;105142;1290;67534;-74
2023/03/07 00:39:28;;;;;;;;;;;;;;;-3.16;73.87;99544.52;105077;1289;70396;-74
2023/03/07 00:42:14;;;;;;;;;;;;;;;-3.12;73.94;99544.78;105169;1289;60347;-74
2023/03/07 00:45:00;;;;;;;;;;;;;;;-3.08;73.91;99543.84;105174;1289;60469;-74
2023/03/07 00:47:46;;;;;;;;;;;;;;;-3.06;74.01;99539.83;105096;1290;72503;-74
2023/03/07 00:50:32;;;;;;;;;;;;;;;-3.03;74.00;99533.65;105138;1291;68816;-74
2023/03/07 00:53:19;;;;;;;;;;;;;;;-2.98;74.05;99529.70;105101;1288;72584;-74
2023/03/07 00:56:06;;;;;;;;;;;;;;;-2.95;74.01;99527.73;105005;1289;60465;-75
2023/03/07 00:58:52;;;;;;;;;;;;;;;-2.93;74.04;99520.38;105128;1289;61609;-74
2023/03/07 01:01:38;;;;;;;;;;;;;;;-2.89;74.11;99516.73;105093;1289;73279;-74
2023/03/07 01:04:24;;;;;;;;;;;;;;;-2.85;74.12;99521.55;105163;1289;69986;-74
2023/03/07 01:07:10;;;;;;;;;;;;;;;-2.81;74.15;99518.59;105094;1290;70107;-75
2023/03/07 01:09:56;;;;;;;;;;;;;;;-2.79;74.22;99512.73;105061;1290;61068;-74
2023/03/07 01:12:43;;;;;;;;;;;;;;;-2.78;74.23;99514.62;104999;1289;59394;-75
2023/03/07 01:15:29;;;;;;;;;;;;;;;-2.77;74.23;99511.41;105190;1292;72787;-75
2023/03/07 01:18:15;;;;;;;;;;;;;;;-2.75;74.21;99509.09;105061;1292;70738;-75
2023/03/07 01:21:01;;;;;;;;;;;;;;;-2.75;74.29;99507.25;105164;1289;71311;-75
2023/03/07 01:23:48;;;;;;;;;;;;;;;-2.72;74.30;99505.45;105161;1292;60194;-74
2023/03/07 01:26:34;;;;;;;;;;;;;;;-2.72;74.22;99503.59;105079;1288;59333;-74
2023/03/07 01:29:20;;;;;;;;;;;;;;;-2.73;74.18;99500.54;104991;1288;75104;-75
2023/03/07 01:32:06;;;;;;;;;;;;;;;-2.73;74.18;99498.52;105147;1292;67245;-74
2023/03/07 01:34:52;;;;;;;;;;;;;;;-2.74;74.22;99492.25;105034;1292;72705;-74
2023/03/07 01:37:38;;;;;;;;;;;;;;;-2.77;74.23;99491.36;105098;1289;60855;-74
2023/03/07 01:40:24;;;;;;;;;;;;;;;-2.77;74.31;99486.13;101238;1288;5159497;-74
2023/03/07 01:43:24;;;;;;;;;;;;;;;-2.77;74.29;99487.15;105115;1294;72095;-75
2023/03/07 01:46:37;;;;;;;;;;;;;;;-2.78;74.26;99484.08;104931;1290;67357;-75
2023/03/07 01:49:38;;;;;;;;;;;;;;;-2.80;74.23;99480.33;104280;1303;71386;-74
2023/03/07 01:52:28;;;;;;;;;;;;;;;-2.82;74.34;99479.95;104305;1298;60360;-74
2023/03/07 01:55:16;;;;;;;;;;;;;;;-2.82;74.28;99478.95;104283;1297;60325;-74
2023/03/07 01:58:04;;;;;;;;;;;;;;;-2.81;74.39;99476.61;104304;1297;72145;-74
2023/03/07 02:00:50;;;;;;;;;;;;;;;-2.79;74.36;99474.63;104223;1298;71248;-74
2023/03/07 02:03:46;;;;;;;;;;;;;;;-2.78;74.37;99466.88;104299;1297;71979;-74
2023/03/07 02:06:35;;;;;;;;;;;;;;;-2.77;74.45;99463.52;104294;1298;61522;-74
2023/03/07 02:09:22;;;;;;;;;;;;;;;-2.78;74.39;99456.59;104323;1297;60429;-74
2023/03/07 02:12:09;;;;;;;;;;;;;;;-2.80;74.36;99457.06;104357;1302;73373;-74
2023/03/07 02:14:55;;;;;;;;;;;;;;;-2.80;74.36;99453.17;104308;1297;70032;-74
2023/03/07 02:17:42;;;;;;;;;;;;;;;-2.80;74.46;99450.81;104268;1297;72062;-74
2023/03/07 02:20:51;;;;;;;;;;;;;;;-2.83;74.35;99449.42;104158;1297;63776;-75
2023/03/07 02:23:42;;;;;;;;;;;;;;;-2.85;74.30;99442.98;103859;1303;60916;-74
2023/03/07 02:26:52;;;;;;;;;;;;;;;-2.87;74.39;99434.68;104108;1297;73460;-74
2023/03/07 02:29:39;;;;;;;;;;;;;;;-2.91;74.28;99431.23;103931;1303;67251;-74
2023/03/07 02:32:25;;;;;;;;;;;;;;;-2.93;74.33;99428.32;103940;1303;71256;-74
2023/03/07 02:35:17;;;;;;;;;;;;;;;-2.96;74.39;99428.92;103834;1303;60382;-74
2023/03/07 02:38:04;;;;;;;;;;;;;;;-2.96;74.37;99425.21;103921;1303;61810;-74
2023/03/07 02:40:52;;;;;;;;;;;;;;;-2.99;74.28;99422.13;103900;1303;72959;-75
2023/03/07 02:43:38;;;;;;;;;;;;;;;-3.03;74.33;99418.52;103911;1303;70192;-74
2023/03/07 02:46:24;;;;;;;;;;;;;;;-3.04;74.42;99412.92;104012;1306;75353;-74
2023/03/07 02:49:10;;;;;;;;;;;;;;;-3.04;74.37;99410.59;103879;1303;60545;-74
2023/03/07 02:51:59;;;;;;;;;;;;;;;-3.03;74.45;99407.05;103962;1306;61541;-74
2023/03/07 02:54:46;;;;;;;;;;;;;;;-3.05;74.38;99399.95;103756;1302;255430;-74
2023/03/07 02:57:32;;;;;;;;;;;;;;;-3.06;74.37;99393.84;103954;1303;68494;-74
2023/03/07 03:00:18;;;;;;;;;;;;;;;-3.08;74.43;99388.42;104114;1295;71066;-74
2023/03/07 03:03:04;;;;;;;;;;;;;;;-3.09;74.37;99382.17;104554;1298;61051;-74
2023/03/07 03:05:50;;;;;;;;;;;;;;;-3.10;74.45;99375.56;104576;1296;60432;-74
2023/03/07 03:08:36;;;;;;;;;;;;;;;-3.11;74.40;99373.70;105023;1295;75242;-75
2023/03/07 03:11:23;;;;;;;;;;;;;;;-3.13;74.39;99366.44;105056;1289;69958;-75
2023/03/07 03:14:09;;;;;;;;;;;;;;;-3.15;74.50;99361.70;105065;1289;72225;-75
2023/03/07 03:16:55;;;;;;;;;;;;;;;-3.12;74.55;99364.10;104893;1289;60541;-74
2023/03/07 03:19:41;;;;;;;;;;;;;;;-3.11;74.58;99352.47;105130;1292;59304;-74
2023/03/07 03:22:27;;;;;;;;;;;;;;;-3.10;74.69;99340.86;104889;1294;72472;-74
2023/03/07 03:25:14;;;;;;;;;;;;;;;-3.07;74.73;99336.70;105023;1291;68246;-74
2023/03/07 03:28:00;;;;;;;;;;;;;;;-3.05;74.74;99328.81;104947;1294;72845;-74
2023/03/07 03:30:55;;;;;;;;;;;;;;;-3.03;74.76;99324.80;105108;1290;59191;-74
2023/03/07 03:33:42;;;;;;;;;;;;;;;-3.02;74.76;99319.09;105026;1290;59241;-74
2023/03/07 03:36:28;;;;;;;;;;;;;;;-2.99;74.83;99313.89;104964;1289;71856;-74
2023/03/07 03:39:14;;;;;;;;;;;;;;;-2.96;74.94;99317.66;105165;1289;70308;-74
2023/03/07 03:42:01;;;;;;;;;;;;;;;-2.92;74.97;99311.17;105069;1290;71363;-74
2023/03/07 03:44:47;;;;;;;;;;;;;;;-2.88;74.99;99302.12;105150;1289;59109;-74
2023/03/07 03:47:33;;;;;;;;;;;;;;;-2.81;75.09;99303.09;105142;1292;59443;-75
2023/03/07 03:50:19;;;;;;;;;;;;;;;-2.76;75.07;99299.62;105163;1292;73604;-74
2023/03/07 03:53:05;;;;;;;;;;;;;;;-2.71;75.14;99298.02;105240;1292;68631;-74
2023/03/07 03:55:51;;;;;;;;;;;;;;;-2.69;75.05;99296.54;105091;1289;71385;-74
2023/03/07 03:58:37;;;;;;;;;;;;;;;-2.68;75.10;99296.23;105166;1292;60463;-74
2023/03/07 04:01:24;;;;;;;;;;;;;;;-2.66;75.09;99292.87;105095;1288;59994;-74
2023/03/07 04:04:11;;;;;;;;;;;;;;;-2.64;75.19;99290.38;105168;1292;73574;-74
2023/03/07 04:06:57;;;;;;;;;;;;;;;-2.62;75.13;99282.81;104958;1289;67394;-74
2023/03/07 04:09:43;;;;;;;;;;;;;;;-2.61;75.08;99276.75;105160;1289;73942;-74
2023/03/07 04:12:29;;;;;;;;;;;;;;;-2.60;75.17;99273.39;105120;1289;59772;-74
2023/03/07 04:15:16;;;;;;;;;;;;;;;-2.58;75.20;99271.20;104983;1294;60459;-74
2023/03/07 04:18:02;;;;;;;;;;;;;;;-2.57;75.17;99269.36;105245;1289;72567;-75
2023/03/07 04:20:49;;;;;;;;;;;;;;;-2.56;75.17;99267.86;105137;1288;67935;-74
2023/03/07 04:23:35;;;;;;;;;;;;;;;-2.53;75.21;99265.37;105044;1288;71249;-74
2023/03/07 04:26:22;;;;;;;;;;;;;;;-2.50;75.24;99263.39;105133;1288;60332;-74
2023/03/07 04:29:08;;;;;;;;;;;;;;;-2.46;75.28;99262.60;105175;1289;60392;-74
2023/03/07 04:31:54;;;;;;;;;;;;;;;-2.41;75.29;99259.98;105016;1289;73253;-74
2023/03/07 04:34:40;;;;;;;;;;;;;;;-2.37;75.39;99253.97;105068;1289;70045;-74
2023/03/07 04:37:26;;;;;;;;;;;;;;;-2.32;75.38;99247.80;105038;1293;72403;-74
2023/03/07 04:40:12;;;;;;;;;;;;;;;-2.28;75.38;99245.31;105068;1293;61003;-74
2023/03/07 04:42:59;;;;;;;;;;;;;;;-2.25;75.41;99244.51;105164;1292;60778;-74
2023/03/07 04:45:45;;;;;;;;;;;;;;;-2.21;75.52;99240.67;105000;1288;74056;-74
2023/03/07 04:48:31;;;;;;;;;;;;;;;-2.16;75.47;99232.97;105105;1289;69964;-74
2023/03/07 04:51:17;;;;;;;;;;;;;;;-2.12;75.41;99223.07;105108;1289;74002;-74
2023/03/07 04:54:03;;;;;;;;;;;;;;;-2.10;75.48;99218.21;104895;1289;60991;-74
2023/03/07 04:56:49;;;;;;;;;;;;;;;-2.06;75.49;99210.96;105090;1288;61573;-74
2023/03/07 04:59:38;;;;;;;;;;;;;;;-2.03;75.55;99201.54;105172;1289;73990;-75
2023/03/07 05:02:24;;;;;;;;;;;;;;;-2.01;75.50;99191.77;105117;1289;68455;-74
2023/03/07 05:05:10;;;;;;;;;;;;;;;-1.99;75.51;99187.23;105130;1295;70763;-74
2023/03/07 05:07:56;;;;;;;;;;;;;;;-1.98;75.61;99184.55;105066;1295;61600;-74
2023/03/07 05:10:42;;;;;;;;;;;;;;;-1.95;75.59;99182.55;105125;1289;60303;-74
2023/03/07 05:13:29;;;;;;;;;;;;;;;-1.92;75.67;99180.05;105077;1292;73936;-74
2023/03/07 05:16:16;;;;;;;;;;;;;;;-1.88;75.69;99169.45;105185;1293;69008;-74
2023/03/07 05:19:02;;;;;;;;;;;;;;;-1.86;75.72;99165.42;105094;1290;71199;-74
2023/03/07 05:21:49;;;;;;;;;;;;;;;-1.82;75.72;99163.60;104991;1289;60485;-74
2023/03/07 05:24:35;;;;;;;;;;;;;;;-1.80;75.83;99156.03;105204;1291;61532;-74
2023/03/07 05:27:21;;;;;;;;;;;;;;;-1.77;75.80;99151.67;105163;1288;73753;-74
2023/03/07 05:30:08;;;;;;;;;;;;;;;-1.73;75.75;99146.13;105171;1290;67290;-75
2023/03/07 05:32:54;;;;;;;;;;;;;;;-1.69;75.89;99142.64;105079;1288;72148;-74
2023/03/07 05:35:40;;;;;;;;;;;;;;;-1.65;75.93;99141.30;105201;1292;60457;-75
2023/03/07 05:38:26;;;;;;;;;;;;;;;-1.63;75.94;99133.56;105117;1293;60472;-75
2023/03/07 05:41:12;;;;;;;;;;;;;;;-1.59;75.89;99132.75;105057;1288;73029;-75
2023/03/07 05:43:58;;;;;;;;;;;;;;;-1.57;75.88;99126.18;105226;1288;67869;-75
2023/03/07 05:46:45;;;;;;;;;;;;;;;-1.53;75.91;99121.61;105173;1289;71746;-76
2023/03/07 05:49:30;;;;;;;;;;;;;;;-1.52;75.88;99115.54;105228;1293;62288;-74
2023/03/07 05:52:17;;;;;;;;;;;;;;;-1.49;76.06;99111.85;101708;1292;5003651;-75
2023/03/07 05:57:20;;;;;;;;;;;;;;;-1.39;76.17;99102.14;97413;1292;10002033;-77
2023/03/07 06:00:07;;;;;;;;;;;;;;;-1.35;76.12;99106.90;104842;1292;71946;-76
2023/03/07 06:02:53;;;;;;;;;;;;;;;-1.33;76.09;99103.70;104725;1297;67171;-77
2023/03/07 06:05:40;;;;;;;;;;;;;;;-1.30;76.13;99100.16;104808;1291;73993;-76
2023/03/07 06:08:26;;;;;;;;;;;;;;;-1.29;76.10;99095.61;104832;1294;59146;-76
2023/03/07 06:11:12;;;;;;;;;;;;;;;-1.26;76.18;99087.00;104578;1292;276561;-76
2023/03/07 06:13:58;;;;;;;;;;;;;;;-1.25;76.10;99084.66;105110;1291;70822;-76
2023/03/07 06:16:44;;;;;;;;;;;;;;;-1.24;76.20;99074.52;105236;1289;67463;-77
2023/03/07 06:19:31;;;;;;;;;;;;;;;-1.21;76.25;99072.34;105115;1287;72515;-76
2023/03/07 06:22:17;;;;;;;;;;;;;;;-1.18;76.26;99069.99;105171;1291;59305;-76
2023/03/07 06:25:06;;;;;;;;;;;;;;;-1.14;76.39;99069.34;105100;1291;60955;-77
2023/03/07 06:27:58;;;;;;;;;;;;;;;-1.08;76.33;99063.13;105158;1288;71603;-77
2023/03/07 06:30:44;;;;;;;;;;;;;;;-1.04;76.39;99067.36;105072;1288;68916;-76
2023/03/07 06:33:31;;;;;;;;;;;;;;;-1.00;76.36;99065.33;105167;1288;72297;-76
2023/03/07 06:36:23;;;;;;;;;;;;;;;-0.96;76.37;99061.98;105156;1293;59660;-77
2023/03/07 06:39:09;;;;;;;;;;;;;;;-0.94;76.34;99061.31;105074;1288;60874;-77
2023/03/07 06:41:55;;;;;;;;;;;;;;;-0.93;76.45;99053.54;105147;1287;73088;-77
2023/03/07 06:44:41;;;;;;;;;;;;;;;-0.91;76.53;99047.28;105019;1293;67503;-76
2023/03/07 06:47:27;;;;;;;;;;;;;;;-0.87;76.59;99045.61;105197;1291;73203;-77
2023/03/07 06:50:13;;;;;;;;;;;;;;;-0.83;76.57;99040.73;105052;1292;59557;-77
2023/03/07 06:52:59;;;;;;;;;;;;;;;-0.78;76.55;99027.39;105075;1288;60169;-78
2023/03/07 06:55:49;;;;;;;;;;;;;;;-0.74;76.60;99017.59;105070;1292;71785;-76
2023/03/07 06:58:36;;;;;;;;;;;;;;;-0.72;76.64;99019.11;105107;1294;68318;-76
2023/03/07 07:01:22;;;;;;;;;;;;;;;-0.64;76.66;99012.71;105102;1289;74010;-77
2023/03/07 07:04:09;;;;;;;;;;;;;;;-0.59;76.69;99012.23;105139;1293;59589;-77
2023/03/07 07:06:55;;;;;;;;;;;;;;;-0.57;76.68;99007.83;104987;1294;59792;-77
2023/03/07 07:09:41;;;;;;;;;;;;;;;-0.53;76.74;99006.30;105069;1288;72866;-77
2023/03/07 07:12:27;;;;;;;;;;;;;;;-0.48;76.78;99001.22;105101;1288;68792;-77
2023/03/07 07:15:13;;;;;;;;;;;;;;;-0.43;76.79;98994.30;104951;1294;71502;-77
2023/03/07 07:17:59;;;;;;;;;;;;;;;-0.36;76.87;98992.27;104979;1289;59147;-77
2023/03/07 07:20:51;;;;;;;;;;;;;;;-0.29;76.91;98994.48;105039;1290;61855;-76
2023/03/07 07:23:37;;;;;;;;;;;;;;;-0.25;76.96;98980.79;105093;1288;72453;-76
2023/03/07 07:26:25;;;;;;;;;;;;;;;-0.18;76.96;98976.90;104954;1290;67199;-76
2023/03/07 07:29:11;;;;;;;;;;;;;;;-0.08;77.00;98975.55;105050;1293;73982;-76
2023/03/07 07:31:57;;;;;;;;;;;;;;;-0.00;77.06;98975.53;105089;1290;60201;-76
2023/03/07 07:34:43;;;;;;;;;;;;;;;0.07;76.95;98970.95;105141;1288;62833;-76
2023/03/07 07:37:30;;;;;;;;;;;;;;;0.14;77.11;98973.31;105104;1289;71592;-76
2023/03/07 07:40:16;;;;;;;;;;;;;;;0.19;77.07;98971.79;104984;1288;67471;-76
2023/03/07 07:43:02;;;;;;;;;;;;;;;0.25;77.13;98966.88;105063;1290;73184;-75
2023/03/07 07:45:48;;;;;;;;;;;;;;;0.32;77.16;98960.42;105080;1291;59314;-76
2023/03/07 07:48:34;;;;;;;;;;;;;;;0.43;77.20;98954.98;105058;1291;60494;-76
2023/03/07 07:51:20;;;;;;;;;;;;;;;0.57;77.19;98949.48;105116;1290;71862;-75
2023/03/07 07:54:08;;;;;;;;;;;;;;;0.66;77.31;98948.62;105108;1293;68353;-74
2023/03/07 07:56:54;;;;;;;;;;;;;;;0.71;77.23;98940.64;104990;1294;71281;-74
2023/03/07 07:59:40;;;;;;;;;;;;;;;0.72;77.25;98938.59;105085;1289;59779;-75
2023/03/07 08:02:27;;;;;;;;;;;;;;;0.75;77.39;98933.33;105085;1291;59638;-75
2023/03/07 08:05:13;;;;;;;;;;;;;;;0.81;77.34;98930.77;105067;1288;71408;-75
2023/03/07 08:07:59;;;;;;;;;;;;;;;0.88;77.43;98920.56;105076;1292;67338;-75
2023/03/07 08:10:46;;;;;;;;;;;;;;;0.97;77.52;98921.20;105087;1288;71871;-75
2023/03/07 08:13:31;;;;;;;;;;;;;;;1.10;77.57;98917.38;105132;1288;58295;-75
2023/03/07 08:16:19;;;;;;;;;;;;;;;1.21;77.57;98913.91;105072;1290;59861;-76
2023/03/07 08:19:06;;;;;;;;;;;;;;;1.29;77.60;98915.06;105060;1290;72615;-76
2023/03/07 08:21:52;;;;;;;;;;;;;;;1.32;77.40;98903.50;104982;1294;69183;-76
2023/03/07 08:24:38;;;;;;;;;;;;;;;1.33;77.41;98886.52;104939;1293;72532;-75
2023/03/07 08:27:24;;;;;;;;;;;;;;;1.35;77.53;98904.84;105111;1288;58678;-75
2023/03/07 08:30:11;;;;;;;;;;;;;;;1.38;77.63;98892.27;104984;1288;60071;-76
2023/03/07 08:32:57;;;;;;;;;;;;;;;1.40;77.64;98881.22;104990;1290;72821;-76
2023/03/07 08:35:43;;;;;;;;;;;;;;;1.45;77.62;98884.58;104977;1293;67966;-76
2023/03/07 08:38:30;;;;;;;;;;;;;;;1.49;77.65;98875.03;105012;1295;70770;-76
2023/03/07 08:41:16;;;;;;;;;;;;;;;1.55;77.64;98864.11;105051;1290;60154;-76
2023/03/07 08:44:03;;;;;;;;;;;;;;;1.63;77.68;98867.42;105089;1288;59039;-76
2023/03/07 08:46:49;;;;;;;;;;;;;;;1.71;77.72;98859.21;105035;1291;72859;-76
2023/03/07 08:49:35;;;;;;;;;;;;;;;1.81;77.82;98857.94;105121;1293;68376;-76
2023/03/07 08:52:21;;;;;;;;;;;;;;;1.91;77.85;98858.52;105051;1289;71563;-76
2023/03/07 08:55:07;;;;;;;;;;;;;;;2.00;77.81;98853.33;105018;1290;59550;-76
2023/03/07 08:57:53;;;;;;;;;;;;;;;2.05;77.66;98859.58;105036;1289;59539;-76
2023/03/07 09:00:40;;;;;;;;;;;;;;;2.05;77.66;98851.58;105127;1289;71742;-76
2023/03/07 09:03:26;;;;;;;;;;;;;;;2.08;77.63;98850.86;105033;1290;67214;-76
2023/03/07 09:06:16;;;;;;;;;;;;;;;2.05;77.63;98852.95;104977;1294;70292;-75
2023/03/07 09:09:04;;;;;;;;;;;;;;;2.01;77.50;98856.39;105009;1295;59943;-75
2023/03/07 09:11:50;;;;;;;;;;;;;;;1.95;77.57;98849.98;105102;1291;59675;-75
2023/03/07 09:14:36;;;;;;;;;;;;;;;1.90;77.58;98848.67;105095;1294;71574;-76
2023/03/07 09:17:22;;;;;;;;;;;;;;;1.84;77.71;98841.59;104974;1295;68708;-75
2023/03/07 09:20:10;;;;;;;;;;;;;;;1.77;77.74;98840.13;105199;1292;74112;-75
2023/03/07 09:22:57;;;;;;;;;;;;;;;1.65;77.69;98840.75;104993;1295;59562;-75
2023/03/07 09:25:43;;;;;;;;;;;;;;;1.56;77.72;98844.07;105083;1293;59641;-75
2023/03/07 09:28:29;;;;;;;;;;;;;;;1.46;77.87;98840.93;105001;1288;72333;-75
2023/03/07 09:31:15;;;;;;;;;;;;;;;1.37;77.88;98839.64;105016;1289;67621;-76
2023/03/07 09:34:01;;;;;;;;;;;;;;;1.28;77.89;98839.70;105034;1292;73934;-76
2023/03/07 09:36:49;;;;;;;;;;;;;;;1.22;78.02;98841.79;105086;1289;59273;-76
2023/03/07 09:39:35;;;;;;;;;;;;;;;1.19;78.05;98842.31;104996;1290;59602;-76
2023/03/07 09:42:47;;;;;;;;;;;;;;;1.15;78.10;98838.77;104920;1294;71117;-76
2023/03/07 09:45:53;;;;;;;;;;;;;;;1.10;78.14;98839.48;104992;1292;67265;-76
2023/03/07 09:48:58;;;;;;;;;;;;;;;1.09;78.19;98838.65;104603;1300;72352;-76
2023/03/07 09:51:45;;;;;;;;;;;;;;;1.09;78.30;98833.89;104656;1295;59338;-75
2023/03/07 09:54:51;;;;;;;;;;;;;;;1.09;78.42;98831.69;104524;1300;59716;-75
2023/03/07 09:57:49;;;;;;;;;;;;;;;1.11;78.54;98831.00;104109;1302;71703;-75
2023/03/07 10:00:39;;;;;;;;;;;;;;;1.13;78.59;98828.61;104071;1306;67935;-76
2023/03/07 10:03:40;;;;;;;;;;;;;;;1.18;78.57;98830.44;104106;1307;74142;-75
2023/03/07 10:06:48;;;;;;;;;;;;;;;1.23;78.52;98823.96;104533;1310;59826;-77
2023/03/07 10:09:34;;;;;;;;;;;;;;;1.27;78.55;98828.34;104729;1308;60355;-76
2023/03/07 10:12:46;;;;;;;;;;;;;;;1.32;78.89;98827.29;104818;1306;71796;-76
2023/03/07 10:15:41;;;;;;;;;;;;;;;1.38;78.82;98815.02;104123;1315;67399;-76
2023/03/07 10:18:38;;;;;;;;;;;;;;;1.42;78.71;98813.29;104153;1314;71626;-77
2023/03/07 10:21:35;;;;;;;;;;;;;;;1.47;78.84;98815.29;104171;1314;58019;-76
2023/03/07 10:24:24;;;;;;;;;;;;;;;1.53;78.87;98806.07;104107;1312;59690;-76
2023/03/07 10:27:11;;;;;;;;;;;;;;;1.58;78.85;98805.48;104649;1306;72918;-76
2023/03/07 10:29:59;;;;;;;;;;;;;;;1.62;78.86;98804.42;104591;1306;68565;-76
2023/03/07 10:32:46;;;;;;;;;;;;;;;1.68;78.78;98797.41;104580;1310;70368;-77
2023/03/07 10:35:44;;;;;;;;;;;;;;;1.75;78.84;98796.50;104993;1303;57822;-77
2023/03/07 10:38:36;;;;;;;;;;;;;;;1.81;79.05;98794.23;105027;1303;58357;-77
2023/03/07 10:41:22;;;;;;;;;;;;;;;1.88;78.86;98792.96;105087;1300;72506;-77
2023/03/07 10:44:14;;;;;;;;;;;;;;;1.94;78.89;98786.11;105137;1299;67496;-77
2023/03/07 10:47:00;;;;;;;;;;;;;;;1.98;78.86;98790.65;105064;1301;70996;-76
2023/03/07 10:49:47;;;;;;;;;;;;;;;2.02;79.04;98784.66;105078;1300;58672;-76
2023/03/07 10:52:45;;;;;;;;;;;;;;;2.03;78.96;98779.55;105421;1291;58799;-76
2023/03/07 10:55:32;;;;;;;;;;;;;;;2.05;78.96;98778.52;105890;1291;72514;-76
2023/03/07 10:58:22;;;;;;;;;;;;;;;2.06;78.96;98777.48;105054;1293;67598;-76
2023/03/07 11:01:14;;;;;;;;;;;;;;;2.09;78.97;98773.17;104921;1294;72204;-76
2023/03/07 11:04:21;;;;;;;;;;;;;;;2.10;79.02;98776.89;104929;1292;60229;-76
2023/03/07 11:07:22;;;;;;;;;;;;;;;2.09;78.98;98768.24;104517;1298;60406;-76
2023/03/07 11:10:26;;;;;;;;;;;;;;;2.09;79.12;98758.90;104525;1296;75097;-76
2023/03/07 11:13:16;;;;;;;;;;;;;;;2.11;79.19;98757.34;104600;1296;67946;-76
2023/03/07 11:16:14;;;;;;;;;;;;;;;2.13;79.07;98753.58;104543;1298;71831;-75
2023/03/07 11:19:02;;;;;;;;;;;;;;;2.16;79.15;98749.64;104533;1298;61108;-75
2023/03/07 11:21:55;;;;;;;;;;;;;;;2.16;79.18;98752.69;104528;1301;59296;-75
2023/03/07 11:24:46;;;;;;;;;;;;;;;2.18;79.31;98749.61;104553;1299;72629;-76
2023/03/07 11:27:35;;;;;;;;;;;;;;;2.20;79.34;98751.46;104546;1297;67218;-76
2023/03/07 11:30:39;;;;;;;;;;;;;;;2.22;79.31;98746.49;104456;1298;74102;-75
2023/03/07 11:33:48;;;;;;;;;;;;;;;2.27;79.34;98746.09;104482;1299;60229;-76
2023/03/07 11:36:35;;;;;;;;;;;;;;;2.31;79.39;98744.52;104556;1301;61177;-76
2023/03/07 11:39:50;;;;;;;;;;;;;;;2.35;79.31;98744.13;104356;1301;75299;-76
2023/03/07 11:42:40;;;;;;;;;;;;;;;2.40;79.35;98742.36;104050;1301;70177;-76
2023/03/07 11:45:55;;;;;;;;;;;;;;;2.43;79.32;98736.02;104345;1302;73046;-76
2023/03/07 11:49:01;;;;;;;;;;;;;;;2.44;79.31;98734.48;103921;1306;60287;-76
2023/03/07 11:51:53;;;;;;;;;;;;;;;2.43;79.31;98735.86;103387;1312;60184;-76
2023/03/07 11:54:53;;;;;;;;;;;;;;;2.43;79.35;98729.39;103423;1310;72626;-76
2023/03/07 11:57:57;;;;;;;;;;;;;;;2.44;79.46;98727.35;103311;1315;67008;-76
2023/03/07 12:00:54;;;;;;;;;;;;;;;2.44;79.35;98730.40;103372;1314;72527;-76
2023/03/07 12:03:43;;;;;;;;;;;;;;;2.42;79.30;98730.60;103332;1310;60316;-76
2023/03/07 12:06:48;;;;;;;;;;;;;;;2.43;79.42;98728.55;103379;1309;60653;-75
2023/03/07 12:09:35;;;;;;;;;;;;;;;2.45;79.49;98720.36;103427;1314;72690;-76
2023/03/07 12:12:28;;;;;;;;;;;;;;;2.48;79.46;98716.23;103392;1315;67324;-75
2023/03/07 12:15:34;;;;;;;;;;;;;;;2.51;79.43;98716.20;103418;1309;72299;-76
2023/03/07 12:18:39;;;;;;;;;;;;;;;2.55;79.56;98705.25;103457;1309;60449;-76
2023/03/07 12:21:58;;;;;;;;;;;;;;;2.63;79.51;98701.70;103646;1306;60399;-75
2023/03/07 12:25:00;;;;;;;;;;;;;;;2.70;79.58;98702.28;103349;1315;72787;-75
2023/03/07 12:28:06;;;;;;;;;;;;;;;2.76;79.57;98699.64;103915;1303;67148;-75
2023/03/07 12:30:57;;;;;;;;;;;;;;;2.85;79.65;98693.38;104046;1302;71866;-75
2023/03/07 12:33:46;;;;;;;;;;;;;;;2.94;79.70;98689.66;104096;1302;58644;-75
2023/03/07 12:36:37;;;;;;;;;;;;;;;3.02;79.56;98683.23;104140;1302;60507;-75
2023/03/07 12:39:28;;;;;;;;;;;;;;;3.07;79.63;98679.74;104094;1304;74124;-75
2023/03/07 12:42:25;;;;;;;;;;;;;;;3.15;79.66;98682.81;104106;1302;68580;-76
2023/03/07 12:45:12;;;;;;;;;;;;;;;3.22;79.58;98682.17;104089;1303;72350;-76
2023/03/07 12:48:17;;;;;;;;;;;;;;;3.30;79.74;98681.86;104020;1304;59363;-76
2023/03/07 12:51:08;;;;;;;;;;;;;;;3.38;79.61;98684.96;104074;1303;60709;-76
2023/03/07 12:54:00;;;;;;;;;;;;;;;3.41;79.57;98680.81;104038;1305;73321;-76
2023/03/07 12:57:01;;;;;;;;;;;;;;;3.42;79.47;98678.08;104033;1303;69011;-75
2023/03/07 12:59:50;;;;;;;;;;;;;;;3.42;79.61;98676.20;103838;1297;72518;-77
2023/03/07 13:02:40;;;;;;;;;;;;;;;3.44;79.61;98673.79;103990;1296;60404;-76
2023/03/07 13:05:27;;;;;;;;;;;;;;;3.44;79.57;98679.23;104296;1296;58745;-76
2023/03/07 13:08:17;;;;;;;;;;;;;;;3.43;79.61;98671.59;104602;1297;73226;-76
2023/03/07 13:11:03;;;;;;;;;;;;;;;3.44;79.74;98674.64;104986;1295;67958;-76
2023/03/07 13:14:09;;;;;;;;;;;;;;;3.45;79.71;98675.30;104936;1291;71442;-75
2023/03/07 13:16:55;;;;;;;;;;;;;;;3.45;79.80;98664.91;104983;1291;59173;-76
2023/03/07 13:19:42;;;;;;;;;;;;;;;3.45;79.73;98662.69;104871;1291;59390;-76
2023/03/07 13:22:28;;;;;;;;;;;;;;;3.44;79.72;98656.58;104960;1296;72327;-77
2023/03/07 13:25:34;;;;;;;;;;;;;;;3.43;79.77;98655.07;104946;1295;66886;-76
2023/03/07 13:28:30;;;;;;;;;;;;;;;3.43;79.81;98652.34;104846;1296;71428;-76
2023/03/07 13:31:41;;;;;;;;;;;;;;;3.45;79.90;98648.57;104948;1295;60380;-76
2023/03/07 13:34:42;;;;;;;;;;;;;;;3.47;79.91;98645.98;104423;1298;59917;-75
2023/03/07 13:37:47;;;;;;;;;;;;;;;3.49;79.97;98642.86;104330;1298;76575;-75
2023/03/07 13:40:33;;;;;;;;;;;;;;;3.49;79.98;98642.52;104426;1297;68891;-75
2023/03/07 13:43:42;;;;;;;;;;;;;;;3.49;79.98;98639.11;104425;1300;71306;-76
2023/03/07 13:47:01;;;;;;;;;;;;;;;3.50;80.01;98635.52;103889;1304;60380;-76
2023/03/07 13:49:47;;;;;;;;;;;;;;;3.49;80.04;98630.94;103507;1309;59077;-76
2023/03/07 13:52:36;;;;;;;;;;;;;;;3.49;80.08;98623.10;103454;1309;73229;-76
2023/03/07 13:55:23;;;;;;;;;;;;;;;3.48;80.13;98625.67;103301;1309;67348;-76
2023/03/07 13:58:18;;;;;;;;;;;;;;;3.47;80.08;98618.89;103516;1312;74042;-76
2023/03/07 14:01:11;;;;;;;;;;;;;;;3.45;80.23;98615.34;103335;1309;58718;-76
2023/03/07 14:04:16;;;;;;;;;;;;;;;3.44;80.15;98612.64;103526;1309;60372;-76
2023/03/07 14:07:10;;;;;;;;;;;;;;;3.43;80.24;98615.39;103485;1309;73034;-76
2023/03/07 14:09:58;;;;;;;;;;;;;;;3.42;80.21;98612.16;103463;1308;67325;-76
2023/03/07 14:13:04;;;;;;;;;;;;;;;3.43;80.19;98605.67;103960;1303;74106;-76
2023/03/07 14:16:05;;;;;;;;;;;;;;;3.42;80.15;98601.27;104045;1304;60085;-76
2023/03/07 14:19:11;;;;;;;;;;;;;;;3.43;80.25;98597.34;103960;1308;59965;-75
2023/03/07 14:22:03;;;;;;;;;;;;;;;3.43;80.29;98594.77;103384;1315;73311;-75
2023/03/07 14:25:08;;;;;;;;;;;;;;;3.40;80.28;98589.73;103940;1303;67271;-75
2023/03/07 14:28:14;;;;;;;;;;;;;;;3.38;80.26;98585.17;104262;1300;74022;-75
2023/03/07 14:31:04;;;;;;;;;;;;;;;3.38;80.28;98583.13;104754;1302;58405;-75
2023/03/07 14:33:51;;;;;;;;;;;;;;;3.39;80.47;98579.88;104839;1304;58994;-75
2023/03/07 14:36:37;;;;;;;;;;;;;;;3.39;80.43;98577.83;104804;1304;72636;-76
2023/03/07 14:39:24;;;;;;;;;;;;;;;3.39;80.43;98570.00;104782;1303;67371;-76